sensor_id;sensor_type;location;lat;lon;timestamp;P1;durP1;ratioP1;P2;durP2;ratioP2
70920;SDS011;58572;48.110;19.838;2024-01-11T00:01:45;8.10;;;3.90;;
70920;SDS011;58572;48.110;19.838;2024-01-11T00:04:14;7.20;;;3.38;;
70920;SDS011;58572;48.110;19.838;2024-01-11T00:06:41;10.60;;;3.38;;
70920;SDS011;58572;48.110;19.838;2024-01-11T00:09:09;9.70;;;4.18;;
70920;SDS011;58572;48.110;19.838;2024-01-11T00:11:36;9.48;;;3.90;;
70920;SDS011;58572;48.110;19.838;2024-01-11T00:14:03;7.13;;;4.50;;
70920;SDS011;58572;48.110;19.838;2024-01-11T00:16:30;9.13;;;4.35;;
70920;SDS011;58572;48.110;19.838;2024-01-11T00:18:57;9.75;;;4.53;;
70920;SDS011;58572;48.110;19.838;2024-01-11T00:21:26;12.45;;;4.07;;
70920;SDS011;58572;48.110;19.838;2024-01-11T00:23:53;7.05;;;2.85;;
70920;SDS011;58572;48.110;19.838;2024-01-11T00:26:20;9.55;;;3.45;;
70920;SDS011;58572;48.110;19.838;2024-01-11T00:28:47;8.77;;;5.75;;
70920;SDS011;58572;48.110;19.838;2024-01-11T00:31:15;10.15;;;4.28;;
70920;SDS011;58572;48.110;19.838;2024-01-11T00:33:42;9.00;;;4.32;;
70920;SDS011;58572;48.110;19.838;2024-01-11T00:36:09;9.45;;;4.05;;
70920;SDS011;58572;48.110;19.838;2024-01-11T00:38:37;8.23;;;4.43;;
70920;SDS011;58572;48.110;19.838;2024-01-11T00:41:04;12.82;;;4.82;;
70920;SDS011;58572;48.110;19.838;2024-01-11T00:43:31;11.85;;;5.13;;
70920;SDS011;58572;48.110;19.838;2024-01-11T00:45:58;11.65;;;4.45;;
70920;SDS011;58572;48.110;19.838;2024-01-11T00:48:25;7.78;;;3.38;;
70920;SDS011;58572;48.110;19.838;2024-01-11T00:50:52;9.40;;;4.68;;
70920;SDS011;58572;48.110;19.838;2024-01-11T00:53:19;8.90;;;4.88;;
70920;SDS011;58572;48.110;19.838;2024-01-11T00:55:48;8.30;;;4.40;;
70920;SDS011;58572;48.110;19.838;2024-01-11T00:58:15;11.30;;;5.38;;
70920;SDS011;58572;48.110;19.838;2024-01-11T01:00:42;10.02;;;4.45;;
70920;SDS011;58572;48.110;19.838;2024-01-11T01:03:09;14.32;;;4.90;;
70920;SDS011;58572;48.110;19.838;2024-01-11T01:05:36;8.10;;;3.90;;
70920;SDS011;58572;48.110;19.838;2024-01-11T01:08:03;7.13;;;3.35;;
70920;SDS011;58572;48.110;19.838;2024-01-11T01:10:30;9.88;;;4.32;;
70920;SDS011;58572;48.110;19.838;2024-01-11T01:12:59;7.25;;;3.53;;
70920;SDS011;58572;48.110;19.838;2024-01-11T01:15:26;6.22;;;3.25;;
70920;SDS011;58572;48.110;19.838;2024-01-11T01:17:53;6.90;;;3.30;;
70920;SDS011;58572;48.110;19.838;2024-01-11T01:20:20;8.50;;;3.63;;
70920;SDS011;58572;48.110;19.838;2024-01-11T01:22:47;10.80;;;5.40;;
70920;SDS011;58572;48.110;19.838;2024-01-11T01:25:14;12.23;;;5.28;;
70920;SDS011;58572;48.110;19.838;2024-01-11T01:27:41;11.93;;;5.47;;
70920;SDS011;58572;48.110;19.838;2024-01-11T01:30:09;9.27;;;4.20;;
70920;SDS011;58572;48.110;19.838;2024-01-11T01:32:36;9.48;;;4.53;;
70920;SDS011;58572;48.110;19.838;2024-01-11T01:35:04;10.68;;;5.28;;
70920;SDS011;58572;48.110;19.838;2024-01-11T01:37:31;11.98;;;5.30;;
70920;SDS011;58572;48.110;19.838;2024-01-11T01:39:58;9.40;;;4.80;;
70920;SDS011;58572;48.110;19.838;2024-01-11T01:42:25;13.07;;;6.28;;
70920;SDS011;58572;48.110;19.838;2024-01-11T01:44:52;9.88;;;4.90;;
70920;SDS011;58572;48.110;19.838;2024-01-11T01:47:21;9.35;;;3.75;;
70920;SDS011;58572;48.110;19.838;2024-01-11T01:49:48;8.25;;;4.57;;
70920;SDS011;58572;48.110;19.838;2024-01-11T01:52:16;10.13;;;4.10;;
70920;SDS011;58572;48.110;19.838;2024-01-11T01:54:43;10.57;;;4.18;;
70920;SDS011;58572;48.110;19.838;2024-01-11T01:57:10;10.07;;;5.30;;
70920;SDS011;58572;48.110;19.838;2024-01-11T01:59:40;11.02;;;3.88;;
70920;SDS011;58572;48.110;19.838;2024-01-11T02:02:08;12.90;;;4.85;;
70920;SDS011;58572;48.110;19.838;2024-01-11T02:04:38;11.65;;;4.65;;
70920;SDS011;58572;48.110;19.838;2024-01-11T02:07:05;10.30;;;4.45;;
70920;SDS011;58572;48.110;19.838;2024-01-11T02:09:33;11.65;;;5.55;;
70920;SDS011;58572;48.110;19.838;2024-01-11T02:12:00;9.63;;;4.63;;
70920;SDS011;58572;48.110;19.838;2024-01-11T02:14:30;13.07;;;6.25;;
70920;SDS011;58572;48.110;19.838;2024-01-11T02:16:57;10.93;;;5.88;;
70920;SDS011;58572;48.110;19.838;2024-01-11T02:19:24;10.00;;;4.70;;
70920;SDS011;58572;48.110;19.838;2024-01-11T02:21:52;12.13;;;4.28;;
70920;SDS011;58572;48.110;19.838;2024-01-11T02:24:23;12.82;;;4.55;;
70920;SDS011;58572;48.110;19.838;2024-01-11T02:27:03;10.55;;;3.45;;
70920;SDS011;58572;48.110;19.838;2024-01-11T02:29:31;11.63;;;4.78;;
70920;SDS011;58572;48.110;19.838;2024-01-11T02:31:58;11.32;;;5.30;;
70920;SDS011;58572;48.110;19.838;2024-01-11T02:34:27;7.85;;;4.07;;
70920;SDS011;58572;48.110;19.838;2024-01-11T02:36:55;7.43;;;3.58;;
70920;SDS011;58572;48.110;19.838;2024-01-11T02:39:24;8.88;;;3.85;;
70920;SDS011;58572;48.110;19.838;2024-01-11T02:41:53;8.70;;;4.55;;
70920;SDS011;58572;48.110;19.838;2024-01-11T02:44:22;10.90;;;5.88;;
70920;SDS011;58572;48.110;19.838;2024-01-11T02:46:49;10.40;;;5.10;;
70920;SDS011;58572;48.110;19.838;2024-01-11T02:49:16;10.88;;;3.65;;
70920;SDS011;58572;48.110;19.838;2024-01-11T02:51:43;6.63;;;3.70;;
70920;SDS011;58572;48.110;19.838;2024-01-11T02:54:10;11.25;;;4.47;;
70920;SDS011;58572;48.110;19.838;2024-01-11T02:56:39;9.95;;;5.38;;
70920;SDS011;58572;48.110;19.838;2024-01-11T02:59:05;8.38;;;3.17;;
70920;SDS011;58572;48.110;19.838;2024-01-11T03:01:32;10.65;;;3.58;;
70920;SDS011;58572;48.110;19.838;2024-01-11T03:04:00;12.43;;;5.57;;
70920;SDS011;58572;48.110;19.838;2024-01-11T03:06:27;10.50;;;4.32;;
70920;SDS011;58572;48.110;19.838;2024-01-11T03:08:54;9.80;;;4.88;;
70920;SDS011;58572;48.110;19.838;2024-01-11T03:11:20;9.65;;;4.68;;
70920;SDS011;58572;48.110;19.838;2024-01-11T03:13:49;10.75;;;4.55;;
70920;SDS011;58572;48.110;19.838;2024-01-11T03:16:16;8.85;;;4.75;;
70920;SDS011;58572;48.110;19.838;2024-01-11T03:18:43;7.22;;;3.15;;
70920;SDS011;58572;48.110;19.838;2024-01-11T03:21:10;4.45;;;3.58;;
70920;SDS011;58572;48.110;19.838;2024-01-11T03:23:37;13.40;;;3.55;;
70920;SDS011;58572;48.110;19.838;2024-01-11T03:26:04;6.28;;;2.85;;
70920;SDS011;58572;48.110;19.838;2024-01-11T03:28:38;10.50;;;5.57;;
70920;SDS011;58572;48.110;19.838;2024-01-11T03:31:07;9.95;;;5.45;;
70920;SDS011;58572;48.110;19.838;2024-01-11T03:33:34;9.10;;;4.75;;
70920;SDS011;58572;48.110;19.838;2024-01-11T03:36:06;12.70;;;6.65;;
70920;SDS011;58572;48.110;19.838;2024-01-11T03:38:33;12.98;;;6.43;;
70920;SDS011;58572;48.110;19.838;2024-01-11T03:41:01;10.90;;;4.82;;
70920;SDS011;58572;48.110;19.838;2024-01-11T03:43:28;7.85;;;3.05;;
70920;SDS011;58572;48.110;19.838;2024-01-11T03:45:57;10.68;;;6.15;;
70920;SDS011;58572;48.110;19.838;2024-01-11T03:48:25;12.10;;;5.50;;
70920;SDS011;58572;48.110;19.838;2024-01-11T03:50:52;11.07;;;6.40;;
70920;SDS011;58572;48.110;19.838;2024-01-11T03:53:19;9.48;;;5.35;;
70920;SDS011;58572;48.110;19.838;2024-01-11T03:55:46;12.82;;;4.85;;
70920;SDS011;58572;48.110;19.838;2024-01-11T03:58:13;9.02;;;4.13;;
70920;SDS011;58572;48.110;19.838;2024-01-11T04:00:41;9.30;;;5.30;;
70920;SDS011;58572;48.110;19.838;2024-01-11T04:03:08;10.05;;;5.97;;
70920;SDS011;58572;48.110;19.838;2024-01-11T04:05:36;13.13;;;5.47;;
70920;SDS011;58572;48.110;19.838;2024-01-11T04:08:04;8.65;;;4.07;;
70920;SDS011;58572;48.110;19.838;2024-01-11T04:10:32;12.30;;;6.35;;
70920;SDS011;58572;48.110;19.838;2024-01-11T04:12:59;10.05;;;3.97;;
70920;SDS011;58572;48.110;19.838;2024-01-11T04:15:26;11.82;;;4.68;;
70920;SDS011;58572;48.110;19.838;2024-01-11T04:17:53;10.32;;;4.53;;
70920;SDS011;58572;48.110;19.838;2024-01-11T04:20:20;13.93;;;4.45;;
70920;SDS011;58572;48.110;19.838;2024-01-11T04:22:48;9.07;;;4.28;;
70920;SDS011;58572;48.110;19.838;2024-01-11T04:25:15;10.30;;;5.40;;
70920;SDS011;58572;48.110;19.838;2024-01-11T04:27:42;8.80;;;5.65;;
70920;SDS011;58572;48.110;19.838;2024-01-11T04:30:09;11.18;;;6.28;;
70920;SDS011;58572;48.110;19.838;2024-01-11T04:32:37;10.02;;;5.63;;
70920;SDS011;58572;48.110;19.838;2024-01-11T04:35:04;8.70;;;4.35;;
70920;SDS011;58572;48.110;19.838;2024-01-11T04:37:31;6.95;;;4.70;;
70920;SDS011;58572;48.110;19.838;2024-01-11T04:40:02;7.95;;;5.20;;
70920;SDS011;58572;48.110;19.838;2024-01-11T04:42:30;11.60;;;4.57;;
70920;SDS011;58572;48.110;19.838;2024-01-11T04:44:57;15.98;;;5.82;;
70920;SDS011;58572;48.110;19.838;2024-01-11T04:47:24;12.15;;;6.97;;
70920;SDS011;58572;48.110;19.838;2024-01-11T04:49:52;7.88;;;3.50;;
70920;SDS011;58572;48.110;19.838;2024-01-11T04:52:19;7.45;;;4.25;;
70920;SDS011;58572;48.110;19.838;2024-01-11T04:54:46;17.30;;;5.90;;
70920;SDS011;58572;48.110;19.838;2024-01-11T04:57:15;13.52;;;6.82;;
70920;SDS011;58572;48.110;19.838;2024-01-11T04:59:42;12.82;;;5.20;;
70920;SDS011;58572;48.110;19.838;2024-01-11T05:02:09;10.68;;;5.20;;
70920;SDS011;58572;48.110;19.838;2024-01-11T05:04:36;11.75;;;5.13;;
70920;SDS011;58572;48.110;19.838;2024-01-11T05:07:03;15.40;;;7.57;;
70920;SDS011;58572;48.110;19.838;2024-01-11T05:09:30;18.15;;;6.75;;
70920;SDS011;58572;48.110;19.838;2024-01-11T05:11:57;10.30;;;4.22;;
70920;SDS011;58572;48.110;19.838;2024-01-11T05:14:26;12.75;;;5.53;;
70920;SDS011;58572;48.110;19.838;2024-01-11T05:16:53;16.25;;;6.60;;
70920;SDS011;58572;48.110;19.838;2024-01-11T05:19:20;12.38;;;5.82;;
70920;SDS011;58572;48.110;19.838;2024-01-11T05:21:48;10.10;;;4.22;;
70920;SDS011;58572;48.110;19.838;2024-01-11T05:24:15;11.57;;;4.05;;
70920;SDS011;58572;48.110;19.838;2024-01-11T05:26:42;17.85;;;6.97;;
70920;SDS011;58572;48.110;19.838;2024-01-11T05:29:09;17.98;;;5.25;;
70920;SDS011;58572;48.110;19.838;2024-01-11T05:31:38;15.80;;;6.40;;
70920;SDS011;58572;48.110;19.838;2024-01-11T05:34:05;19.13;;;6.10;;
70920;SDS011;58572;48.110;19.838;2024-01-11T05:36:32;23.10;;;9.98;;
70920;SDS011;58572;48.110;19.838;2024-01-11T05:38:59;20.05;;;9.40;;
70920;SDS011;58572;48.110;19.838;2024-01-11T05:41:26;34.92;;;13.90;;
70920;SDS011;58572;48.110;19.838;2024-01-11T05:43:53;29.30;;;11.05;;
70920;SDS011;58572;48.110;19.838;2024-01-11T05:46:20;28.08;;;12.60;;
70920;SDS011;58572;48.110;19.838;2024-01-11T05:48:49;34.42;;;12.10;;
70920;SDS011;58572;48.110;19.838;2024-01-11T05:51:16;30.35;;;12.68;;
70920;SDS011;58572;48.110;19.838;2024-01-11T05:53:43;40.53;;;17.38;;
70920;SDS011;58572;48.110;19.838;2024-01-11T05:56:10;30.65;;;12.20;;
70920;SDS011;58572;48.110;19.838;2024-01-11T05:58:37;35.60;;;13.68;;
70920;SDS011;58572;48.110;19.838;2024-01-11T06:06:01;27.52;;;10.35;;
70920;SDS011;58572;48.110;19.838;2024-01-11T06:08:29;20.80;;;10.05;;
70920;SDS011;58572;48.110;19.838;2024-01-11T06:10:56;12.60;;;6.82;;
70920;SDS011;58572;48.110;19.838;2024-01-11T06:13:23;24.90;;;9.88;;
70920;SDS011;58572;48.110;19.838;2024-01-11T06:15:51;16.80;;;6.88;;
70920;SDS011;58572;48.110;19.838;2024-01-11T06:18:18;16.90;;;8.65;;
70920;SDS011;58572;48.110;19.838;2024-01-11T06:20:45;17.15;;;7.63;;
70920;SDS011;58572;48.110;19.838;2024-01-11T06:23:13;20.05;;;8.48;;
70920;SDS011;58572;48.110;19.838;2024-01-11T06:25:42;27.35;;;11.30;;
70920;SDS011;58572;48.110;19.838;2024-01-11T06:28:09;22.48;;;10.80;;
70920;SDS011;58572;48.110;19.838;2024-01-11T06:30:36;30.23;;;9.90;;
70920;SDS011;58572;48.110;19.838;2024-01-11T06:33:03;18.33;;;7.88;;
70920;SDS011;58572;48.110;19.838;2024-01-11T06:35:30;20.70;;;9.32;;
70920;SDS011;58572;48.110;19.838;2024-01-11T06:37:57;25.13;;;8.75;;
70920;SDS011;58572;48.110;19.838;2024-01-11T06:40:25;13.85;;;7.70;;
70920;SDS011;58572;48.110;19.838;2024-01-11T06:42:53;18.80;;;9.27;;
70920;SDS011;58572;48.110;19.838;2024-01-11T06:45:20;13.93;;;5.80;;
70920;SDS011;58572;48.110;19.838;2024-01-11T06:47:47;15.02;;;6.82;;
70920;SDS011;58572;48.110;19.838;2024-01-11T06:50:14;18.45;;;7.93;;
70920;SDS011;58572;48.110;19.838;2024-01-11T06:52:41;14.32;;;5.82;;
70920;SDS011;58572;48.110;19.838;2024-01-11T06:55:09;17.33;;;8.52;;
70920;SDS011;58572;48.110;19.838;2024-01-11T06:57:38;11.88;;;7.35;;
70920;SDS011;58572;48.110;19.838;2024-01-11T07:00:05;16.77;;;7.28;;
70920;SDS011;58572;48.110;19.838;2024-01-11T07:02:33;9.57;;;5.32;;
70920;SDS011;58572;48.110;19.838;2024-01-11T07:05:01;13.20;;;6.93;;
70920;SDS011;58572;48.110;19.838;2024-01-11T07:07:28;12.90;;;7.35;;
70920;SDS011;58572;48.110;19.838;2024-01-11T07:09:55;10.48;;;5.53;;
70920;SDS011;58572;48.110;19.838;2024-01-11T07:12:22;18.65;;;7.63;;
70920;SDS011;58572;48.110;19.838;2024-01-11T07:14:52;13.45;;;6.47;;
70920;SDS011;58572;48.110;19.838;2024-01-11T07:17:19;12.75;;;5.95;;
70920;SDS011;58572;48.110;19.838;2024-01-11T07:19:46;14.63;;;6.03;;
70920;SDS011;58572;48.110;19.838;2024-01-11T07:22:13;16.15;;;6.97;;
70920;SDS011;58572;48.110;19.838;2024-01-11T07:24:40;15.68;;;8.95;;
70920;SDS011;58572;48.110;19.838;2024-01-11T07:27:07;23.83;;;9.52;;
70920;SDS011;58572;48.110;19.838;2024-01-11T07:29:34;18.05;;;8.55;;
70920;SDS011;58572;48.110;19.838;2024-01-11T07:32:03;16.88;;;6.82;;
70920;SDS011;58572;48.110;19.838;2024-01-11T07:34:31;9.48;;;4.68;;
70920;SDS011;58572;48.110;19.838;2024-01-11T07:36:58;5.47;;;3.85;;
70920;SDS011;58572;48.110;19.838;2024-01-11T07:39:25;15.57;;;6.47;;
70920;SDS011;58572;48.110;19.838;2024-01-11T07:41:52;16.02;;;6.97;;
70920;SDS011;58572;48.110;19.838;2024-01-11T07:44:20;8.65;;;4.95;;
70920;SDS011;58572;48.110;19.838;2024-01-11T07:46:47;14.75;;;7.35;;
70920;SDS011;58572;48.110;19.838;2024-01-11T07:49:15;18.98;;;8.98;;
70920;SDS011;58572;48.110;19.838;2024-01-11T07:51:42;22.90;;;10.38;;
70920;SDS011;58572;48.110;19.838;2024-01-11T07:54:09;24.33;;;10.50;;
70920;SDS011;58572;48.110;19.838;2024-01-11T07:56:36;9.70;;;5.45;;
70920;SDS011;58572;48.110;19.838;2024-01-11T07:59:03;6.50;;;3.88;;
70920;SDS011;58572;48.110;19.838;2024-01-11T08:01:31;19.10;;;7.03;;
70920;SDS011;58572;48.110;19.838;2024-01-11T08:04:00;15.73;;;7.72;;
70920;SDS011;58572;48.110;19.838;2024-01-11T08:06:30;17.63;;;7.82;;
70920;SDS011;58572;48.110;19.838;2024-01-11T08:08:57;26.58;;;12.15;;
70920;SDS011;58572;48.110;19.838;2024-01-11T08:11:24;11.52;;;10.77;;
70920;SDS011;58572;48.110;19.838;2024-01-11T08:13:51;26.23;;;10.73;;
70920;SDS011;58572;48.110;19.838;2024-01-11T08:16:20;37.88;;;16.27;;
70920;SDS011;58572;48.110;19.838;2024-01-11T08:18:47;83.80;;;29.67;;
70920;SDS011;58572;48.110;19.838;2024-01-11T08:21:14;88.30;;;33.67;;
70920;SDS011;58572;48.110;19.838;2024-01-11T08:23:43;72.82;;;28.02;;
70920;SDS011;58572;48.110;19.838;2024-01-11T08:26:12;68.03;;;28.90;;
70920;SDS011;58572;48.110;19.838;2024-01-11T08:28:40;27.63;;;15.40;;
70920;SDS011;58572;48.110;19.838;2024-01-11T08:31:07;37.88;;;15.63;;
70920;SDS011;58572;48.110;19.838;2024-01-11T08:33:34;36.50;;;15.05;;
70920;SDS011;58572;48.110;19.838;2024-01-11T08:36:02;25.30;;;12.23;;
70920;SDS011;58572;48.110;19.838;2024-01-11T08:38:30;27.15;;;12.30;;
70920;SDS011;58572;48.110;19.838;2024-01-11T08:40:58;15.93;;;12.20;;
70920;SDS011;58572;48.110;19.838;2024-01-11T08:43:25;23.67;;;10.27;;
70920;SDS011;58572;48.110;19.838;2024-01-11T08:45:52;17.15;;;9.75;;
70920;SDS011;58572;48.110;19.838;2024-01-11T08:48:19;17.83;;;9.18;;
70920;SDS011;58572;48.110;19.838;2024-01-11T08:50:47;21.27;;;9.45;;
70920;SDS011;58572;48.110;19.838;2024-01-11T08:53:14;23.52;;;10.63;;
70920;SDS011;58572;48.110;19.838;2024-01-11T08:55:42;39.63;;;18.15;;
70920;SDS011;58572;48.110;19.838;2024-01-11T08:58:11;24.05;;;11.07;;
70920;SDS011;58572;48.110;19.838;2024-01-11T09:00:38;18.45;;;9.13;;
70920;SDS011;58572;48.110;19.838;2024-01-11T09:03:06;19.13;;;9.57;;
70920;SDS011;58572;48.110;19.838;2024-01-11T09:05:33;29.52;;;12.35;;
70920;SDS011;58572;48.110;19.838;2024-01-11T09:08:00;17.92;;;8.88;;
70920;SDS011;58572;48.110;19.838;2024-01-11T09:10:27;19.98;;;7.93;;
70920;SDS011;58572;48.110;19.838;2024-01-11T09:12:54;19.27;;;9.15;;
70920;SDS011;58572;48.110;19.838;2024-01-11T09:15:23;8.85;;;7.35;;
70920;SDS011;58572;48.110;19.838;2024-01-11T09:17:53;24.20;;;11.90;;
70920;SDS011;58572;48.110;19.838;2024-01-11T09:20:20;24.05;;;10.57;;
70920;SDS011;58572;48.110;19.838;2024-01-11T09:22:47;16.95;;;8.93;;
70920;SDS011;58572;48.110;19.838;2024-01-11T09:25:14;22.42;;;10.60;;
70920;SDS011;58572;48.110;19.838;2024-01-11T09:27:42;20.80;;;6.88;;
70920;SDS011;58572;48.110;19.838;2024-01-11T09:30:09;23.45;;;11.63;;
70920;SDS011;58572;48.110;19.838;2024-01-11T09:32:38;28.20;;;12.50;;
70920;SDS011;58572;48.110;19.838;2024-01-11T09:35:06;24.05;;;12.98;;
70920;SDS011;58572;48.110;19.838;2024-01-11T09:37:33;22.30;;;9.82;;
70920;SDS011;58572;48.110;19.838;2024-01-11T09:40:01;16.20;;;8.73;;
70920;SDS011;58572;48.110;19.838;2024-01-11T09:42:29;24.52;;;12.27;;
70920;SDS011;58572;48.110;19.838;2024-01-11T09:44:56;22.13;;;11.32;;
70920;SDS011;58572;48.110;19.838;2024-01-11T09:47:23;21.48;;;11.45;;
70920;SDS011;58572;48.110;19.838;2024-01-11T09:49:53;26.67;;;9.68;;
70920;SDS011;58572;48.110;19.838;2024-01-11T09:52:22;27.60;;;12.43;;
70920;SDS011;58572;48.110;19.838;2024-01-11T09:54:51;24.33;;;10.32;;
70920;SDS011;58572;48.110;19.838;2024-01-11T09:57:22;29.15;;;12.32;;
70920;SDS011;58572;48.110;19.838;2024-01-11T10:02:21;16.27;;;7.20;;
70920;SDS011;58572;48.110;19.838;2024-01-11T10:04:49;25.15;;;11.48;;
70920;SDS011;58572;48.110;19.838;2024-01-11T10:07:19;30.92;;;12.68;;
70920;SDS011;58572;48.110;19.838;2024-01-11T10:09:48;24.27;;;12.63;;
70920;SDS011;58572;48.110;19.838;2024-01-11T10:12:15;16.05;;;14.20;;
70920;SDS011;58572;48.110;19.838;2024-01-11T10:14:45;26.52;;;13.07;;
70920;SDS011;58572;48.110;19.838;2024-01-11T10:17:13;20.67;;;9.77;;
70920;SDS011;58572;48.110;19.838;2024-01-11T10:19:40;21.00;;;11.10;;
70920;SDS011;58572;48.110;19.838;2024-01-11T10:22:07;24.15;;;10.32;;
70920;SDS011;58572;48.110;19.838;2024-01-11T10:24:39;22.17;;;10.60;;
70920;SDS011;58572;48.110;19.838;2024-01-11T10:27:08;9.18;;;4.82;;
70920;SDS011;58572;48.110;19.838;2024-01-11T10:29:36;16.15;;;7.72;;
70920;SDS011;58572;48.110;19.838;2024-01-11T10:32:05;13.85;;;7.13;;
70920;SDS011;58572;48.110;19.838;2024-01-11T10:34:32;14.23;;;7.43;;
70920;SDS011;58572;48.110;19.838;2024-01-11T10:37:00;17.80;;;8.77;;
70920;SDS011;58572;48.110;19.838;2024-01-11T10:39:27;20.13;;;8.70;;
70920;SDS011;58572;48.110;19.838;2024-01-11T10:41:58;24.75;;;11.73;;
70920;SDS011;58572;48.110;19.838;2024-01-11T10:44:30;22.50;;;10.73;;
70920;SDS011;58572;48.110;19.838;2024-01-11T10:46:59;19.17;;;9.57;;
70920;SDS011;58572;48.110;19.838;2024-01-11T10:49:30;14.88;;;6.72;;
70920;SDS011;58572;48.110;19.838;2024-01-11T10:51:59;20.90;;;10.88;;
70920;SDS011;58572;48.110;19.838;2024-01-11T10:54:31;21.02;;;10.13;;
70920;SDS011;58572;48.110;19.838;2024-01-11T10:57:01;21.73;;;9.57;;
70920;SDS011;58572;48.110;19.838;2024-01-11T10:59:31;20.17;;;10.80;;
70920;SDS011;58572;48.110;19.838;2024-01-11T11:01:59;18.75;;;7.68;;
70920;SDS011;58572;48.110;19.838;2024-01-11T11:04:33;21.92;;;17.17;;
70920;SDS011;58572;48.110;19.838;2024-01-11T11:07:03;17.65;;;9.13;;
70920;SDS011;58572;48.110;19.838;2024-01-11T11:09:33;16.95;;;8.00;;
70920;SDS011;58572;48.110;19.838;2024-01-11T11:12:03;19.08;;;9.80;;
70920;SDS011;58572;48.110;19.838;2024-01-11T11:14:32;17.02;;;9.15;;
70920;SDS011;58572;48.110;19.838;2024-01-11T11:17:01;14.93;;;7.20;;
70920;SDS011;58572;48.110;19.838;2024-01-11T11:19:29;16.35;;;8.43;;
70920;SDS011;58572;48.110;19.838;2024-01-11T11:21:57;22.05;;;9.57;;
70920;SDS011;58572;48.110;19.838;2024-01-11T11:24:24;16.02;;;7.45;;
70920;SDS011;58572;48.110;19.838;2024-01-11T11:26:52;13.63;;;9.30;;
70920;SDS011;58572;48.110;19.838;2024-01-11T11:29:23;18.67;;;8.57;;
70920;SDS011;58572;48.110;19.838;2024-01-11T11:31:51;14.88;;;7.05;;
70920;SDS011;58572;48.110;19.838;2024-01-11T11:34:19;17.77;;;9.32;;
70920;SDS011;58572;48.110;19.838;2024-01-11T11:36:46;15.07;;;7.88;;
70920;SDS011;58572;48.110;19.838;2024-01-11T11:41:42;51.67;;;19.08;;
70920;SDS011;58572;48.110;19.838;2024-01-11T11:44:09;20.40;;;10.38;;
70920;SDS011;58572;48.110;19.838;2024-01-11T11:46:40;19.98;;;9.65;;
70920;SDS011;58572;48.110;19.838;2024-01-11T11:49:09;13.27;;;7.97;;
70920;SDS011;58572;48.110;19.838;2024-01-11T11:51:39;17.13;;;6.88;;
70920;SDS011;58572;48.110;19.838;2024-01-11T11:54:07;17.45;;;9.10;;
70920;SDS011;58572;48.110;19.838;2024-01-11T11:56:37;16.42;;;7.78;;
70920;SDS011;58572;48.110;19.838;2024-01-11T11:59:04;16.23;;;9.43;;
70920;SDS011;58572;48.110;19.838;2024-01-11T12:01:34;12.45;;;7.72;;
70920;SDS011;58572;48.110;19.838;2024-01-11T12:04:03;18.75;;;10.18;;
70920;SDS011;58572;48.110;19.838;2024-01-11T12:06:31;21.95;;;10.45;;
70920;SDS011;58572;48.110;19.838;2024-01-11T12:08:58;15.38;;;8.88;;
70920;SDS011;58572;48.110;19.838;2024-01-11T12:11:25;14.13;;;7.15;;
70920;SDS011;58572;48.110;19.838;2024-01-11T12:13:53;18.08;;;7.88;;
70920;SDS011;58572;48.110;19.838;2024-01-11T12:16:22;9.93;;;5.45;;
70920;SDS011;58572;48.110;19.838;2024-01-11T12:18:49;20.02;;;10.48;;
70920;SDS011;58572;48.110;19.838;2024-01-11T12:21:18;18.35;;;7.88;;
70920;SDS011;58572;48.110;19.838;2024-01-11T12:23:46;18.23;;;9.95;;
70920;SDS011;58572;48.110;19.838;2024-01-11T12:26:13;18.00;;;8.30;;
70920;SDS011;58572;48.110;19.838;2024-01-11T12:28:41;23.30;;;12.68;;
70920;SDS011;58572;48.110;19.838;2024-01-11T12:31:09;19.30;;;11.55;;
70920;SDS011;58572;48.110;19.838;2024-01-11T12:33:39;15.40;;;7.68;;
70920;SDS011;58572;48.110;19.838;2024-01-11T12:36:08;18.92;;;9.05;;
70920;SDS011;58572;48.110;19.838;2024-01-11T12:38:37;16.75;;;9.18;;
70920;SDS011;58572;48.110;19.838;2024-01-11T12:41:04;23.65;;;11.75;;
70920;SDS011;58572;48.110;19.838;2024-01-11T12:43:35;13.57;;;7.30;;
70920;SDS011;58572;48.110;19.838;2024-01-11T12:46:03;22.55;;;10.45;;
70920;SDS011;58572;48.110;19.838;2024-01-11T12:48:30;21.85;;;11.63;;
70920;SDS011;58572;48.110;19.838;2024-01-11T12:50:57;19.10;;;9.90;;
70920;SDS011;58572;48.110;19.838;2024-01-11T12:53:25;18.92;;;10.77;;
70920;SDS011;58572;48.110;19.838;2024-01-11T12:56:03;23.88;;;12.40;;
70920;SDS011;58572;48.110;19.838;2024-01-11T12:58:33;16.52;;;9.30;;
70920;SDS011;58572;48.110;19.838;2024-01-11T13:01:01;19.80;;;7.97;;
70920;SDS011;58572;48.110;19.838;2024-01-11T13:03:28;17.25;;;7.75;;
70920;SDS011;58572;48.110;19.838;2024-01-11T13:05:56;12.77;;;5.95;;
70920;SDS011;58572;48.110;19.838;2024-01-11T13:08:24;16.02;;;8.82;;
70920;SDS011;58572;48.110;19.838;2024-01-11T13:10:52;8.93;;;6.05;;
70920;SDS011;58572;48.110;19.838;2024-01-11T13:13:21;17.25;;;9.32;;
70920;SDS011;58572;48.110;19.838;2024-01-11T13:15:48;18.80;;;9.57;;
70920;SDS011;58572;48.110;19.838;2024-01-11T13:18:16;15.85;;;8.93;;
70920;SDS011;58572;48.110;19.838;2024-01-11T13:20:43;12.73;;;6.60;;
70920;SDS011;58572;48.110;19.838;2024-01-11T13:23:14;17.40;;;7.35;;
70920;SDS011;58572;48.110;19.838;2024-01-11T13:25:43;16.02;;;7.15;;
70920;SDS011;58572;48.110;19.838;2024-01-11T13:28:11;15.15;;;7.05;;
70920;SDS011;58572;48.110;19.838;2024-01-11T13:30:40;19.42;;;8.15;;
70920;SDS011;58572;48.110;19.838;2024-01-11T13:33:09;13.73;;;6.80;;
70920;SDS011;58572;48.110;19.838;2024-01-11T13:38:04;15.70;;;6.40;;
70920;SDS011;58572;48.110;19.838;2024-01-11T13:40:32;15.23;;;8.07;;
70920;SDS011;58572;48.110;19.838;2024-01-11T13:42:59;12.63;;;5.85;;
70920;SDS011;58572;48.110;19.838;2024-01-11T13:45:27;17.10;;;7.55;;
70920;SDS011;58572;48.110;19.838;2024-01-11T13:47:56;16.83;;;8.40;;
70920;SDS011;58572;48.110;19.838;2024-01-11T13:50:23;11.40;;;5.38;;
70920;SDS011;58572;48.110;19.838;2024-01-11T13:52:51;21.65;;;10.10;;
70920;SDS011;58572;48.110;19.838;2024-01-11T13:55:18;18.48;;;10.27;;
70920;SDS011;58572;48.110;19.838;2024-01-11T13:57:47;14.90;;;7.55;;
70920;SDS011;58572;48.110;19.838;2024-01-11T14:00:14;19.67;;;8.07;;
70920;SDS011;58572;48.110;19.838;2024-01-11T14:02:43;18.08;;;9.45;;
70920;SDS011;58572;48.110;19.838;2024-01-11T14:05:12;20.23;;;7.82;;
70920;SDS011;58572;48.110;19.838;2024-01-11T14:07:43;21.75;;;11.32;;
70920;SDS011;58572;48.110;19.838;2024-01-11T14:10:10;18.05;;;10.25;;
70920;SDS011;58572;48.110;19.838;2024-01-11T14:12:38;18.98;;;8.38;;
70920;SDS011;58572;48.110;19.838;2024-01-11T14:15:06;18.05;;;8.60;;
70920;SDS011;58572;48.110;19.838;2024-01-11T14:17:36;18.23;;;8.18;;
70920;SDS011;58572;48.110;19.838;2024-01-11T14:20:04;20.20;;;10.05;;
70920;SDS011;58572;48.110;19.838;2024-01-11T14:22:38;25.27;;;12.05;;
70920;SDS011;58572;48.110;19.838;2024-01-11T14:25:07;21.67;;;10.23;;
70920;SDS011;58572;48.110;19.838;2024-01-11T14:27:36;19.30;;;8.68;;
70920;SDS011;58572;48.110;19.838;2024-01-11T14:30:03;18.05;;;10.57;;
70920;SDS011;58572;48.110;19.838;2024-01-11T14:32:31;20.45;;;9.73;;
70920;SDS011;58572;48.110;19.838;2024-01-11T14:34:59;24.77;;;12.02;;
70920;SDS011;58572;48.110;19.838;2024-01-11T14:37:29;27.52;;;12.70;;